DAL2716 KMKE-KSLC
Flight info
| Callsign | DAL2716 |
|---|---|
| Flight time | N/A |
| Altitude | 36000 |
| Route | GREAS JAYEX MCW KP78E KD75Y KD72U CKW CARTR1 |
| Aircraft | A321/M-SDE3FGHIRWY/LB1 |
Departure
| Time | 2026-04-27 22:35 |
|---|---|
| Airport | General Mitchell International Airport (KMKE) |
Arrival
| Time | N/A |
|---|---|
| Airport | Salt Lake City International Airport (KSLC) |
| Time | Latitude | Longitude | Altitude | Speed | Heading |
|---|---|---|---|---|---|
| 2026-04-27 22:23 | 42.94766 | -87.89819 | 688 ft | 0 kts | 283° |
| 2026-04-27 22:27 | 42.94765 | -87.89816 | 688 ft | 2 kts | 283° |
| 2026-04-27 22:27 | 42.94760 | -87.89782 | 680 ft | 4 kts | 278° |
| 2026-04-27 22:28 | 42.94759 | -87.89745 | 680 ft | 4 kts | 255° |
| 2026-04-27 22:28 | 42.94770 | -87.89723 | 682 ft | 3 kts | 187° |
| 2026-04-27 22:28 | 42.94796 | -87.89719 | 682 ft | 4 kts | 186° |
| 2026-04-27 22:28 | 42.94821 | -87.89715 | 684 ft | 2 kts | 186° |
| 2026-04-27 22:29 | 42.94823 | -87.89714 | 684 ft | 0 kts | 186° |
| 2026-04-27 22:30 | 42.94810 | -87.89716 | 681 ft | 6 kts | 186° |
| 2026-04-27 22:30 | 42.94765 | -87.89683 | 680 ft | 8 kts | 110° |
| 2026-04-27 22:31 | 42.94730 | -87.89634 | 683 ft | 9 kts | 166° |
| 2026-04-27 22:31 | 42.94649 | -87.89636 | 686 ft | 11 kts | 166° |
| 2026-04-27 22:31 | 42.94621 | -87.89548 | 688 ft | 10 kts | 97° |
| 2026-04-27 22:31 | 42.94613 | -87.89457 | 684 ft | 9 kts | 97° |
| 2026-04-27 22:32 | 42.94616 | -87.89351 | 688 ft | 14 kts | 72° |
| 2026-04-27 22:32 | 42.94650 | -87.89204 | 683 ft | 16 kts | 71° |
| 2026-04-27 22:32 | 42.94684 | -87.89063 | 685 ft | 15 kts | 72° |
| 2026-04-27 22:32 | 42.94713 | -87.88936 | 688 ft | 13 kts | 77° |
| 2026-04-27 22:33 | 42.94659 | -87.88867 | 683 ft | 11 kts | 161° |
| 2026-04-27 22:33 | 42.94608 | -87.88906 | 688 ft | 9 kts | 251° |
| 2026-04-27 22:33 | 42.94600 | -87.88938 | 682 ft | 0 kts | 252° |
| 2026-04-27 22:34 | 42.94579 | -87.89024 | 688 ft | 36 kts | 252° |
| 2026-04-27 22:35 | 42.94420 | -87.89653 | 688 ft | 101 kts | 251° |
| 2026-04-27 22:35 | 42.94147 | -87.90793 | 689 ft | 149 kts | 253° |
| 2026-04-27 22:35 | 42.93792 | -87.92231 | 1008 ft | 162 kts | 246° |
| 2026-04-27 22:35 | 42.93536 | -87.93716 | 1712 ft | 166 kts | 255° |
| 2026-04-27 22:36 | 42.93532 | -87.95304 | 2608 ft | 170 kts | 258° |
| 2026-04-27 22:36 | 42.93560 | -87.97013 | 3199 ft | 190 kts | 259° |
| 2026-04-27 22:36 | 42.93590 | -87.98938 | 3693 ft | 215 kts | 261° |
| 2026-04-27 22:36 | 42.93625 | -88.01134 | 4226 ft | 241 kts | 262° |
| 2026-04-27 22:37 | 42.93663 | -88.03506 | 5019 ft | 254 kts | 263° |
| 2026-04-27 22:37 | 42.93710 | -88.05921 | 6207 ft | 253 kts | 264° |
| 2026-04-27 22:37 | 42.93755 | -88.08301 | 7265 ft | 255 kts | 263° |
| 2026-04-27 22:37 | 42.93790 | -88.10744 | 8255 ft | 260 kts | 263° |
| 2026-04-27 22:38 | 42.93816 | -88.13233 | 9231 ft | 265 kts | 263° |
| 2026-04-27 22:38 | 42.93838 | -88.15768 | 10150 ft | 268 kts | 263° |
| 2026-04-27 22:38 | 42.93853 | -88.18406 | 10644 ft | 290 kts | 264° |
| 2026-04-27 22:38 | 42.93866 | -88.21285 | 10986 ft | 313 kts | 264° |
| 2026-04-27 22:39 | 42.93886 | -88.24320 | 11672 ft | 323 kts | 264° |
| 2026-04-27 22:39 | 42.93914 | -88.27392 | 12541 ft | 328 kts | 265° |
| 2026-04-27 22:39 | 42.93947 | -88.30527 | 13476 ft | 331 kts | 265° |
| 2026-04-27 22:39 | 42.93979 | -88.33685 | 14300 ft | 334 kts | 265° |
| 2026-04-27 22:40 | 42.94008 | -88.36866 | 15120 ft | 336 kts | 265° |
| 2026-04-27 22:40 | 42.94031 | -88.40025 | 15901 ft | 338 kts | 265° |
| 2026-04-27 22:40 | 42.94050 | -88.43250 | 16650 ft | 340 kts | 265° |
| 2026-04-27 22:40 | 42.94065 | -88.46493 | 17377 ft | 342 kts | 265° |
| 2026-04-27 22:41 | 42.94079 | -88.49751 | 18068 ft | 344 kts | 265° |
| 2026-04-27 22:41 | 42.94094 | -88.53034 | 18627 ft | 347 kts | 265° |
| 2026-04-27 22:41 | 42.94118 | -88.56305 | 19169 ft | 350 kts | 265° |
| 2026-04-27 22:41 | 42.94198 | -88.59645 | 19715 ft | 352 kts | 266° |
| 2026-04-27 22:42 | 42.94313 | -88.63002 | 20245 ft | 355 kts | 266° |
| 2026-04-27 22:42 | 42.94442 | -88.66387 | 20748 ft | 358 kts | 266° |
| 2026-04-27 22:42 | 42.94568 | -88.69787 | 21240 ft | 360 kts | 266° |
| 2026-04-27 22:42 | 42.94689 | -88.73208 | 21726 ft | 362 kts | 266° |
| 2026-04-27 22:43 | 42.94804 | -88.76663 | 22195 ft | 364 kts | 266° |
| 2026-04-27 22:43 | 42.94915 | -88.80092 | 22676 ft | 366 kts | 266° |
| 2026-04-27 22:43 | 42.95023 | -88.83585 | 23127 ft | 368 kts | 266° |
| 2026-04-27 22:43 | 42.95127 | -88.87088 | 23528 ft | 370 kts | 264° |
| 2026-04-27 22:44 | 42.95228 | -88.90613 | 23891 ft | 372 kts | 264° |
| 2026-04-27 22:44 | 42.95327 | -88.94122 | 24220 ft | 374 kts | 264° |
| 2026-04-27 22:44 | 42.95426 | -88.97686 | 24548 ft | 377 kts | 264° |
| 2026-04-27 22:44 | 42.95525 | -89.01281 | 24871 ft | 379 kts | 264° |
| 2026-04-27 22:45 | 42.95624 | -89.04897 | 25193 ft | 382 kts | 264° |
| 2026-04-27 22:45 | 42.95723 | -89.08534 | 25492 ft | 384 kts | 264° |
| 2026-04-27 22:45 | 42.95822 | -89.12195 | 25798 ft | 387 kts | 264° |
| 2026-04-27 22:45 | 42.95924 | -89.15880 | 26095 ft | 389 kts | 264° |
| 2026-04-27 22:46 | 42.96028 | -89.19581 | 26388 ft | 392 kts | 264° |
| 2026-04-27 22:46 | 42.96131 | -89.23317 | 26675 ft | 394 kts | 264° |
| 2026-04-27 22:46 | 42.96230 | -89.27065 | 27042 ft | 395 kts | 263° |
| 2026-04-27 22:46 | 42.96325 | -89.30782 | 27370 ft | 396 kts | 262° |
| 2026-04-27 22:47 | 42.96421 | -89.34597 | 27674 ft | 398 kts | 262° |
| 2026-04-27 22:47 | 42.96518 | -89.38363 | 27959 ft | 401 kts | 262° |
| 2026-04-27 22:47 | 42.96614 | -89.42194 | 28239 ft | 403 kts | 262° |
| 2026-04-27 22:47 | 42.96706 | -89.46030 | 28510 ft | 404 kts | 262° |
| 2026-04-27 22:48 | 42.96796 | -89.49869 | 28769 ft | 407 kts | 262° |
| 2026-04-27 22:48 | 42.96883 | -89.53703 | 29015 ft | 408 kts | 262° |
| 2026-04-27 22:48 | 42.96974 | -89.57615 | 29268 ft | 411 kts | 262° |
| 2026-04-27 22:48 | 42.97068 | -89.61537 | 29514 ft | 413 kts | 262° |
| 2026-04-27 22:49 | 42.97161 | -89.65466 | 29746 ft | 415 kts | 262° |
| 2026-04-27 22:49 | 42.97251 | -89.69375 | 29963 ft | 417 kts | 262° |
| 2026-04-27 22:49 | 42.97341 | -89.73332 | 30265 ft | 416 kts | 262° |
| 2026-04-27 22:49 | 42.97431 | -89.77298 | 30607 ft | 415 kts | 262° |
| 2026-04-27 22:50 | 42.97515 | -89.81200 | 30914 ft | 415 kts | 261° |
| 2026-04-27 22:50 | 42.97597 | -89.85139 | 31229 ft | 414 kts | 261° |
| 2026-04-27 22:50 | 42.97679 | -89.89077 | 31524 ft | 414 kts | 261° |
| 2026-04-27 22:50 | 42.97762 | -89.93018 | 31828 ft | 414 kts | 261° |
| 2026-04-27 22:51 | 42.97843 | -89.96948 | 32135 ft | 413 kts | 261° |
| 2026-04-27 22:51 | 42.97920 | -90.00875 | 32493 ft | 413 kts | 261° |
| 2026-04-27 22:51 | 42.97992 | -90.04800 | 32792 ft | 413 kts | 261° |
| 2026-04-27 22:51 | 42.98065 | -90.08729 | 33072 ft | 413 kts | 261° |
| 2026-04-27 22:52 | 42.98136 | -90.12607 | 33375 ft | 412 kts | 261° |
| 2026-04-27 22:52 | 42.98209 | -90.16535 | 33662 ft | 412 kts | 261° |
| 2026-04-27 22:52 | 42.98285 | -90.20447 | 33899 ft | 412 kts | 261° |
| 2026-04-27 22:52 | 42.98359 | -90.24367 | 34133 ft | 412 kts | 261° |
| 2026-04-27 22:53 | 42.98486 | -90.28237 | 34381 ft | 413 kts | 263° |
| 2026-04-27 22:53 | 42.98676 | -90.32154 | 34629 ft | 414 kts | 264° |
| 2026-04-27 22:53 | 42.98895 | -90.36077 | 34866 ft | 414 kts | 264° |
| 2026-04-27 22:53 | 42.99119 | -90.40006 | 35101 ft | 414 kts | 265° |
| 2026-04-27 22:54 | 42.99333 | -90.43948 | 35220 ft | 416 kts | 265° |
| 2026-04-27 22:54 | 42.99533 | -90.47905 | 35375 ft | 417 kts | 265° |
| 2026-04-27 22:54 | 42.99722 | -90.51824 | 35550 ft | 417 kts | 265° |
| 2026-04-27 22:55 | 43.00087 | -90.59833 | 35611 ft | 426 kts | 265° |
| 2026-04-27 22:55 | 43.00450 | -90.67938 | 35611 ft | 434 kts | 265° |
| 2026-04-27 22:56 | 43.00827 | -90.76242 | 35611 ft | 439 kts | 265° |
| 2026-04-27 22:56 | 43.01207 | -90.84542 | 35608 ft | 437 kts | 266° |
| 2026-04-27 22:57 | 43.01568 | -90.92822 | 35606 ft | 437 kts | 266° |
| 2026-04-27 22:57 | 43.01926 | -91.01144 | 35590 ft | 438 kts | 266° |
| 2026-04-27 22:58 | 43.02275 | -91.09407 | 35589 ft | 438 kts | 266° |
| 2026-04-27 22:58 | 43.02622 | -91.17740 | 35622 ft | 439 kts | 267° |
| 2026-04-27 22:59 | 43.02962 | -91.26096 | 35609 ft | 440 kts | 267° |
| 2026-04-27 22:59 | 43.03296 | -91.34428 | 35609 ft | 441 kts | 267° |
| 2026-04-27 23:00 | 43.03789 | -91.46996 | 35618 ft | 441 kts | 266° |
| 2026-04-27 23:00 | 43.04055 | -91.53958 | 35650 ft | 441 kts | 267° |
| 2026-04-27 23:01 | 43.04428 | -91.63701 | 35619 ft | 441 kts | 267° |
| 2026-04-27 23:01 | 43.04741 | -91.72080 | 35615 ft | 441 kts | 267° |
| 2026-04-27 23:02 | 43.04997 | -91.79106 | 35616 ft | 441 kts | 267° |
| 2026-04-27 23:02 | 43.05294 | -91.87432 | 35619 ft | 441 kts | 267° |
| 2026-04-27 23:03 | 43.05578 | -91.95823 | 35645 ft | 442 kts | 268° |
| 2026-04-27 23:03 | 43.05863 | -92.04218 | 35646 ft | 442 kts | 268° |
| 2026-04-27 23:04 | 43.06142 | -92.12621 | 35636 ft | 442 kts | 268° |
| 2026-04-27 23:04 | 43.06415 | -92.21010 | 35638 ft | 442 kts | 268° |
| 2026-04-27 23:05 | 43.06686 | -92.29399 | 35673 ft | 441 kts | 268° |
| 2026-04-27 23:05 | 43.06945 | -92.37786 | 35655 ft | 442 kts | 268° |
| 2026-04-27 23:06 | 43.07202 | -92.46190 | 35648 ft | 442 kts | 268° |
| 2026-04-27 23:06 | 43.07451 | -92.54590 | 35664 ft | 442 kts | 268° |
| 2026-04-27 23:07 | 43.07693 | -92.62998 | 35665 ft | 442 kts | 268° |
| 2026-04-27 23:07 | 43.07930 | -92.71411 | 35678 ft | 443 kts | 268° |
| 2026-04-27 23:08 | 43.08157 | -92.79830 | 35674 ft | 443 kts | 268° |
| 2026-04-27 23:08 | 43.08383 | -92.88271 | 35674 ft | 444 kts | 268° |
| 2026-04-27 23:09 | 43.08610 | -92.96651 | 35688 ft | 444 kts | 268° |
| 2026-04-27 23:09 | 43.08820 | -93.05084 | 35696 ft | 444 kts | 268° |
| 2026-04-27 23:10 | 43.09023 | -93.13523 | 35718 ft | 444 kts | 269° |
| 2026-04-27 23:10 | 43.09220 | -93.21957 | 35718 ft | 444 kts | 268° |
| 2026-04-27 23:11 | 43.09411 | -93.30393 | 35715 ft | 444 kts | 268° |
| 2026-04-27 23:11 | 43.09459 | -93.38820 | 35714 ft | 442 kts | 265° |
| 2026-04-27 23:12 | 43.09221 | -93.47228 | 35710 ft | 442 kts | 264° |
| 2026-04-27 23:12 | 43.08921 | -93.55620 | 35726 ft | 442 kts | 264° |
| 2026-04-27 23:13 | 43.08672 | -93.64027 | 35726 ft | 442 kts | 265° |
| 2026-04-27 23:13 | 43.08460 | -93.72381 | 35725 ft | 442 kts | 265° |
| 2026-04-27 23:14 | 43.08242 | -93.80781 | 35726 ft | 442 kts | 265° |
| 2026-04-27 23:14 | 43.08006 | -93.89177 | 35737 ft | 441 kts | 265° |
| 2026-04-27 23:15 | 43.07758 | -93.97552 | 35756 ft | 440 kts | 265° |
| 2026-04-27 23:15 | 43.07506 | -94.05905 | 35757 ft | 440 kts | 265° |
| 2026-04-27 23:16 | 43.07250 | -94.14269 | 35754 ft | 439 kts | 265° |
| 2026-04-27 23:16 | 43.06994 | -94.22615 | 35770 ft | 439 kts | 265° |
| 2026-04-27 23:17 | 43.06732 | -94.30907 | 35762 ft | 439 kts | 265° |
| 2026-04-27 23:17 | 43.06460 | -94.39252 | 35758 ft | 439 kts | 265° |
| 2026-04-27 23:18 | 43.06176 | -94.47586 | 35756 ft | 439 kts | 265° |
| 2026-04-27 23:18 | 43.05890 | -94.55916 | 35752 ft | 438 kts | 265° |
| 2026-04-27 23:19 | 43.05598 | -94.64239 | 35765 ft | 438 kts | 265° |
| 2026-04-27 23:19 | 43.05301 | -94.72562 | 35764 ft | 438 kts | 265° |
| 2026-04-27 23:20 | 43.05002 | -94.80880 | 35776 ft | 438 kts | 265° |
| 2026-04-27 23:20 | 43.04694 | -94.89202 | 35784 ft | 438 kts | 265° |
| 2026-04-27 23:21 | 43.04382 | -94.97517 | 35800 ft | 438 kts | 265° |
| 2026-04-27 23:21 | 43.04063 | -95.05831 | 35799 ft | 438 kts | 265° |
| 2026-04-27 23:22 | 43.03740 | -95.14087 | 35796 ft | 438 kts | 265° |
| 2026-04-27 23:22 | 43.03401 | -95.22396 | 35796 ft | 438 kts | 265° |
| 2026-04-27 23:23 | 43.03056 | -95.30708 | 35796 ft | 438 kts | 265° |
| 2026-04-27 23:23 | 43.02719 | -95.39016 | 35804 ft | 437 kts | 265° |
| 2026-04-27 23:24 | 43.02369 | -95.47325 | 35801 ft | 437 kts | 265° |
| 2026-04-27 23:24 | 43.02008 | -95.55611 | 35807 ft | 437 kts | 265° |
| 2026-04-27 23:25 | 43.01647 | -95.63859 | 35812 ft | 436 kts | 265° |
| 2026-04-27 23:25 | 43.01284 | -95.72137 | 35814 ft | 436 kts | 265° |
| 2026-04-27 23:26 | 43.00912 | -95.80413 | 35826 ft | 435 kts | 265° |
| 2026-04-27 23:26 | 43.00535 | -95.88607 | 35845 ft | 435 kts | 265° |
| 2026-04-27 23:27 | 43.00145 | -95.96856 | 35852 ft | 435 kts | 265° |
| 2026-04-27 23:27 | 42.99735 | -96.05094 | 35856 ft | 435 kts | 264° |
| 2026-04-27 23:28 | 42.99258 | -96.13326 | 35864 ft | 434 kts | 264° |
| 2026-04-27 23:28 | 42.98759 | -96.21542 | 35862 ft | 434 kts | 264° |
| 2026-04-27 23:29 | 42.98265 | -96.29763 | 35861 ft | 434 kts | 264° |
| 2026-04-27 23:29 | 42.97784 | -96.37984 | 35863 ft | 434 kts | 264° |
| 2026-04-27 23:30 | 42.97293 | -96.46201 | 35869 ft | 434 kts | 264° |
| 2026-04-27 23:30 | 42.96793 | -96.54412 | 35890 ft | 434 kts | 264° |
| 2026-04-27 23:31 | 42.96284 | -96.62618 | 35901 ft | 433 kts | 264° |
| 2026-04-27 23:31 | 42.95769 | -96.70812 | 35910 ft | 433 kts | 264° |
| 2026-04-27 23:32 | 42.95250 | -96.79000 | 35908 ft | 432 kts | 264° |
| 2026-04-27 23:32 | 42.94723 | -96.87173 | 35924 ft | 432 kts | 264° |
| 2026-04-27 23:33 | 42.94193 | -96.95346 | 35930 ft | 432 kts | 264° |
| 2026-04-27 23:33 | 42.93668 | -97.03448 | 35948 ft | 431 kts | 264° |
| 2026-04-27 23:34 | 42.93133 | -97.11603 | 35951 ft | 431 kts | 264° |
| 2026-04-27 23:34 | 42.92580 | -97.19756 | 35960 ft | 431 kts | 264° |
| 2026-04-27 23:35 | 42.92025 | -97.27887 | 35962 ft | 431 kts | 264° |
| 2026-04-27 23:35 | 42.91477 | -97.36039 | 35962 ft | 431 kts | 264° |
| 2026-04-27 23:36 | 42.90919 | -97.44183 | 35960 ft | 431 kts | 264° |
| 2026-04-27 23:36 | 42.90346 | -97.52325 | 35961 ft | 431 kts | 264° |
| 2026-04-27 23:37 | 42.89768 | -97.60478 | 35977 ft | 431 kts | 264° |
| 2026-04-27 23:37 | 42.89188 | -97.68604 | 35977 ft | 430 kts | 264° |
| 2026-04-27 23:38 | 42.88608 | -97.76663 | 35985 ft | 429 kts | 264° |
| 2026-04-27 23:38 | 42.88021 | -97.84764 | 35984 ft | 429 kts | 264° |
| 2026-04-27 23:39 | 42.87425 | -97.92858 | 35989 ft | 429 kts | 264° |
| 2026-04-27 23:39 | 42.86827 | -98.00952 | 35998 ft | 429 kts | 264° |
| 2026-04-27 23:40 | 42.86229 | -98.09035 | 35999 ft | 428 kts | 264° |
| 2026-04-27 23:40 | 42.85623 | -98.17112 | 35997 ft | 428 kts | 263° |
| 2026-04-27 23:41 | 42.85005 | -98.25183 | 36001 ft | 428 kts | 263° |
| 2026-04-27 23:41 | 42.84379 | -98.33247 | 35997 ft | 427 kts | 263° |
| 2026-04-27 23:42 | 42.83748 | -98.41305 | 36010 ft | 427 kts | 263° |
| 2026-04-27 23:42 | 42.83119 | -98.49339 | 36009 ft | 426 kts | 263° |
| 2026-04-27 23:43 | 42.82488 | -98.57368 | 36011 ft | 426 kts | 263° |
| 2026-04-27 23:43 | 42.81852 | -98.65341 | 36020 ft | 426 kts | 263° |
| 2026-04-27 23:44 | 42.81200 | -98.73406 | 36021 ft | 426 kts | 263° |
| 2026-04-27 23:44 | 42.80556 | -98.81365 | 36031 ft | 425 kts | 263° |
| 2026-04-27 23:45 | 42.79897 | -98.89365 | 36030 ft | 425 kts | 263° |
| 2026-04-27 23:45 | 42.79234 | -98.97365 | 36042 ft | 425 kts | 263° |
| 2026-04-27 23:46 | 42.78567 | -99.05360 | 36041 ft | 425 kts | 263° |
| 2026-04-27 23:46 | 42.77899 | -99.13360 | 36054 ft | 425 kts | 263° |
| 2026-04-27 23:47 | 42.77230 | -99.21343 | 36054 ft | 424 kts | 263° |
| 2026-04-27 23:47 | 42.76550 | -99.29312 | 36053 ft | 423 kts | 263° |
| 2026-04-27 23:48 | 42.75855 | -99.37265 | 36053 ft | 423 kts | 262° |
| 2026-04-27 23:48 | 42.75164 | -99.45165 | 36058 ft | 423 kts | 262° |
| 2026-04-27 23:49 | 42.74465 | -99.53109 | 36068 ft | 423 kts | 262° |
| 2026-04-27 23:49 | 42.73765 | -99.61050 | 36074 ft | 422 kts | 262° |
| 2026-04-27 23:50 | 42.73060 | -99.68987 | 36075 ft | 422 kts | 262° |
| 2026-04-27 23:50 | 42.72474 | -99.75572 | 36071 ft | 422 kts | 262° |
| 2026-04-27 23:51 | 42.71759 | -99.83483 | 36068 ft | 421 kts | 262° |
| 2026-04-27 23:51 | 42.71036 | -99.91391 | 36068 ft | 421 kts | 262° |
| 2026-04-27 23:52 | 42.70312 | -99.99285 | 36067 ft | 420 kts | 262° |
| 2026-04-27 23:52 | 42.69581 | -100.07168 | 36066 ft | 420 kts | 262° |
| 2026-04-27 23:53 | 42.68848 | -100.15041 | 36069 ft | 420 kts | 262° |
| 2026-04-27 23:53 | 42.68114 | -100.22865 | 36082 ft | 420 kts | 262° |
| 2026-04-27 23:54 | 42.67366 | -100.30739 | 36089 ft | 420 kts | 262° |
| 2026-04-27 23:54 | 42.66618 | -100.38606 | 36100 ft | 420 kts | 262° |
| 2026-04-27 23:55 | 42.65866 | -100.46480 | 36105 ft | 419 kts | 262° |
| 2026-04-27 23:55 | 42.65109 | -100.54346 | 36103 ft | 419 kts | 261° |
| 2026-04-27 23:56 | 42.64351 | -100.62149 | 36112 ft | 419 kts | 261° |
| 2026-04-27 23:56 | 42.63578 | -100.69987 | 36110 ft | 418 kts | 261° |
| 2026-04-27 23:57 | 42.62797 | -100.77810 | 36116 ft | 418 kts | 261° |
| 2026-04-27 23:57 | 42.62015 | -100.85638 | 36111 ft | 418 kts | 261° |
| 2026-04-27 23:58 | 42.61232 | -100.93455 | 36118 ft | 418 kts | 261° |
| 2026-04-27 23:58 | 42.60446 | -101.01271 | 36116 ft | 418 kts | 261° |
| 2026-04-27 23:59 | 42.59650 | -101.09077 | 36115 ft | 417 kts | 261° |
| 2026-04-27 23:59 | 42.58852 | -101.16877 | 36116 ft | 417 kts | 261° |
| 2026-04-28 00:00 | 42.58048 | -101.24675 | 36114 ft | 417 kts | 261° |
| 2026-04-28 00:00 | 42.57241 | -101.32463 | 36129 ft | 416 kts | 261° |
| 2026-04-28 00:01 | 42.56430 | -101.40233 | 36126 ft | 416 kts | 261° |
| 2026-04-28 00:01 | 42.55618 | -101.47954 | 36125 ft | 416 kts | 261° |
| 2026-04-28 00:02 | 42.54801 | -101.55722 | 36126 ft | 416 kts | 261° |
| 2026-04-28 00:02 | 42.53978 | -101.63488 | 36128 ft | 416 kts | 261° |
| 2026-04-28 00:03 | 42.53139 | -101.71243 | 36136 ft | 416 kts | 261° |
| 2026-04-28 00:03 | 42.52295 | -101.78997 | 36135 ft | 415 kts | 261° |
| 2026-04-28 00:04 | 42.51031 | -101.90620 | 36136 ft | 415 kts | 261° |
| 2026-04-28 00:05 | 42.50183 | -101.98359 | 36129 ft | 415 kts | 260° |
| 2026-04-28 00:05 | 42.49340 | -102.06087 | 36139 ft | 415 kts | 261° |
| 2026-04-28 00:06 | 42.48514 | -102.13818 | 36131 ft | 414 kts | 261° |
| 2026-04-28 00:06 | 42.47681 | -102.21541 | 36127 ft | 414 kts | 261° |
| 2026-04-28 00:07 | 42.46840 | -102.29253 | 36125 ft | 414 kts | 261° |
| 2026-04-28 00:07 | 42.46002 | -102.36917 | 36122 ft | 413 kts | 260° |
| 2026-04-28 00:08 | 42.45153 | -102.44622 | 36129 ft | 413 kts | 260° |
| 2026-04-28 00:08 | 42.44300 | -102.52302 | 36120 ft | 412 kts | 260° |
| 2026-04-28 00:09 | 42.43441 | -102.59971 | 36119 ft | 412 kts | 260° |
| 2026-04-28 00:09 | 42.42575 | -102.67634 | 36114 ft | 411 kts | 260° |
| 2026-04-28 00:10 | 42.41712 | -102.75233 | 36108 ft | 411 kts | 260° |
| 2026-04-28 00:10 | 42.40841 | -102.82894 | 36118 ft | 411 kts | 260° |
| 2026-04-28 00:11 | 42.39967 | -102.90525 | 36122 ft | 410 kts | 260° |
| 2026-04-28 00:11 | 42.39093 | -102.98149 | 36119 ft | 410 kts | 260° |
| 2026-04-28 00:12 | 42.38210 | -103.05764 | 36115 ft | 410 kts | 259° |
| 2026-04-28 00:12 | 42.37317 | -103.13374 | 36115 ft | 410 kts | 259° |
| 2026-04-28 00:13 | 42.36420 | -103.20978 | 36113 ft | 410 kts | 259° |
| 2026-04-28 00:13 | 42.35521 | -103.28586 | 36112 ft | 410 kts | 259° |
| 2026-04-28 00:14 | 42.34621 | -103.36191 | 36107 ft | 410 kts | 259° |
| 2026-04-28 00:14 | 42.33722 | -103.43740 | 36105 ft | 410 kts | 259° |
| 2026-04-28 00:15 | 42.32801 | -103.51352 | 36101 ft | 410 kts | 259° |
| 2026-04-28 00:15 | 42.31886 | -103.58947 | 36100 ft | 409 kts | 259° |
| 2026-04-28 00:16 | 42.30968 | -103.66546 | 36093 ft | 409 kts | 259° |
| 2026-04-28 00:16 | 42.30039 | -103.74129 | 36092 ft | 409 kts | 259° |
| 2026-04-28 00:17 | 42.29109 | -103.81712 | 36080 ft | 409 kts | 259° |
| 2026-04-28 00:17 | 42.28176 | -103.89239 | 36082 ft | 409 kts | 259° |
| 2026-04-28 00:18 | 42.27231 | -103.96809 | 36078 ft | 409 kts | 259° |
| 2026-04-28 00:18 | 42.26286 | -104.04386 | 36079 ft | 409 kts | 259° |
| 2026-04-28 00:19 | 42.25337 | -104.11959 | 36077 ft | 409 kts | 259° |
| 2026-04-28 00:19 | 42.24383 | -104.19526 | 36076 ft | 409 kts | 259° |
| 2026-04-28 00:20 | 42.23421 | -104.27098 | 36081 ft | 409 kts | 259° |
| 2026-04-28 00:20 | 42.22451 | -104.34661 | 36067 ft | 409 kts | 259° |
| 2026-04-28 00:21 | 42.21478 | -104.42222 | 36061 ft | 409 kts | 259° |
| 2026-04-28 00:21 | 42.20506 | -104.49786 | 36050 ft | 409 kts | 258° |
| 2026-04-28 00:22 | 42.19526 | -104.57344 | 36043 ft | 409 kts | 258° |
| 2026-04-28 00:22 | 42.18543 | -104.64847 | 36074 ft | 409 kts | 258° |
| 2026-04-28 00:23 | 42.17556 | -104.72405 | 36062 ft | 409 kts | 258° |
| 2026-04-28 00:23 | 42.16559 | -104.79958 | 36053 ft | 409 kts | 258° |
| 2026-04-28 00:24 | 42.15552 | -104.87507 | 36046 ft | 409 kts | 258° |
| 2026-04-28 00:24 | 42.14545 | -104.95056 | 36050 ft | 409 kts | 258° |
| 2026-04-28 00:25 | 42.13530 | -105.02615 | 36083 ft | 409 kts | 258° |
| 2026-04-28 00:25 | 42.12513 | -105.10164 | 36065 ft | 410 kts | 258° |
| 2026-04-28 00:26 | 42.11492 | -105.17710 | 36062 ft | 410 kts | 258° |
| 2026-04-28 00:26 | 42.10469 | -105.25256 | 36060 ft | 410 kts | 258° |
| 2026-04-28 00:27 | 42.09442 | -105.32751 | 36067 ft | 409 kts | 258° |
| 2026-04-28 00:27 | 42.08400 | -105.40296 | 36056 ft | 410 kts | 258° |
| 2026-04-28 00:28 | 42.07357 | -105.47835 | 36054 ft | 410 kts | 258° |
| 2026-04-28 00:28 | 42.06304 | -105.55374 | 36035 ft | 410 kts | 258° |
| 2026-04-28 00:29 | 42.05251 | -105.62917 | 36042 ft | 410 kts | 258° |
| 2026-04-28 00:29 | 42.04193 | -105.70450 | 36023 ft | 409 kts | 257° |
| 2026-04-28 00:30 | 42.03139 | -105.77970 | 36024 ft | 409 kts | 257° |
| 2026-04-28 00:30 | 42.02075 | -105.85476 | 35993 ft | 408 kts | 257° |